createdAt,value
2019-03-09T00:00:52.600Z,84.21
2019-03-09T00:01:52.769Z,84.52
2019-03-09T00:02:52.993Z,85.55
2019-03-09T00:03:53.182Z,85.35
2019-03-09T00:04:53.384Z,82.73
2019-03-09T00:05:53.558Z,82.93
2019-03-09T00:06:53.754Z,83.14
2019-03-09T00:07:53.952Z,83.97
2019-03-09T00:08:54.158Z,82.48
2019-03-09T00:09:54.362Z,81.90
2019-03-09T00:10:54.549Z,82.31
2019-03-09T00:11:54.761Z,83.25
2019-03-09T00:12:54.927Z,81.90
2019-03-09T00:13:55.187Z,82.17
2019-03-09T00:14:55.263Z,82.28
2019-03-09T00:15:55.491Z,81.56
2019-03-09T00:16:55.674Z,80.32
2019-03-09T00:17:55.860Z,80.62
2019-03-09T00:18:56.045Z,81.24
2019-03-09T00:19:56.251Z,80.28
2019-03-09T00:20:56.458Z,79.76
2019-03-09T00:21:56.662Z,80.62
2019-03-09T00:22:56.847Z,79.38
2019-03-09T00:23:57.045Z,80.11
2019-03-09T00:24:57.241Z,79.80
2019-03-09T00:25:57.426Z,80.00
2019-03-09T00:26:57.629Z,79.59
2019-03-09T00:27:57.816Z,78.45
2019-03-09T00:28:58.013Z,79.69
2019-03-09T00:29:58.212Z,79.38
2019-03-09T00:30:58.422Z,78.45
2019-03-09T00:31:58.499Z,77.49
2019-03-09T00:32:59.694Z,78.31
2019-03-09T00:33:58.847Z,77.59
2019-03-09T00:34:59.110Z,77.39
2019-03-09T00:35:59.204Z,77.28
2019-03-09T00:36:59.398Z,77.08
2019-03-09T00:37:59.601Z,76.77
2019-03-09T00:38:59.800Z,77.49
2019-03-09T00:39:59.970Z,76.84
2019-03-09T00:41:00.220Z,76.42
2019-03-09T00:42:00.334Z,76.21
2019-03-09T00:43:00.585Z,77.25
2019-03-09T00:44:00.818Z,76.94
2019-03-09T00:45:01.055Z,77.35
2019-03-09T00:46:01.279Z,76.94
2019-03-09T00:47:01.510Z,75.91
2019-03-09T00:48:01.788Z,75.46
2019-03-09T00:49:01.883Z,76.01
2019-03-09T00:50:02.093Z,76.53
2019-03-09T00:51:02.275Z,78.18
2019-03-09T00:52:02.514Z,79.21
2019-03-09T00:53:02.981Z,78.83
2019-03-09T00:54:03.035Z,78.42
2019-03-09T00:55:03.086Z,79.35
2019-03-09T00:56:03.256Z,79.35
2019-03-09T00:57:03.440Z,81.00
2019-03-09T00:58:03.619Z,80.18
2019-03-09T00:59:03.797Z,81.35
2019-03-09T01:00:03.978Z,80.38
2019-03-09T01:01:04.161Z,81.31
2019-03-09T01:02:04.366Z,82.24
2019-03-09T01:03:04.605Z,80.90
2019-03-09T01:04:04.700Z,82.28
2019-03-09T01:05:04.911Z,82.07
2019-03-09T01:06:05.029Z,83.72
2019-03-09T01:07:05.234Z,84.44
2019-03-09T01:08:05.561Z,83.00
2019-03-09T01:09:05.624Z,81.93
2019-03-09T01:10:05.827Z,83.51
2019-03-09T01:11:06.040Z,83.83
2019-03-09T01:12:06.320Z,82.69
2019-03-09T01:13:06.382Z,81.66
2019-03-09T01:14:06.630Z,83.62
2019-03-09T01:15:06.809Z,82.79
2019-03-09T01:16:07.013Z,84.34
2019-03-09T01:17:07.415Z,83.93
2019-03-09T01:18:07.337Z,83.93
2019-03-09T01:19:07.553Z,84.65
2019-03-09T01:20:07.642Z,84.75
2019-03-09T01:21:07.840Z,83.93
2019-03-09T01:22:08.041Z,84.03
2019-03-09T01:23:08.249Z,85.58
2019-03-09T01:24:08.443Z,86.10
2019-03-09T01:25:08.657Z,86.34
2019-03-09T01:26:08.931Z,85.89
2019-03-09T01:27:08.980Z,84.96
2019-03-09T01:28:09.161Z,84.44
2019-03-09T01:29:09.409Z,84.23
2019-03-09T01:30:09.622Z,84.86
2019-03-09T01:31:09.837Z,85.47
2019-03-09T01:32:10.047Z,86.76
2019-03-09T01:33:10.358Z,87.13
2019-03-09T01:34:10.436Z,86.55
2019-03-09T01:35:10.635Z,87.99
2019-03-09T01:36:10.847Z,88.71
2019-03-09T01:37:11.580Z,87.99
2019-03-09T01:38:11.273Z,87.48
2019-03-09T01:39:11.545Z,89.34
2019-03-09T01:40:11.603Z,88.86
2019-03-09T01:41:11.813Z,88.82
2019-03-09T01:42:12.037Z,89.03
2019-03-09T01:43:12.220Z,89.38
2019-03-09T01:44:12.400Z,89.79
2019-03-09T01:45:12.572Z,89.07
2019-03-09T01:46:12.781Z,88.34
2019-03-09T01:47:12.980Z,88.55
2019-03-09T01:48:13.138Z,88.65
2019-03-09T01:49:13.322Z,89.38
2019-03-09T01:50:13.524Z,90.66
2019-03-09T01:51:13.747Z,89.62
2019-03-09T01:52:13.952Z,90.52
2019-03-09T01:53:14.151Z,91.17
2019-03-09T01:54:14.338Z,89.17
2019-03-09T01:55:14.525Z,88.51
2019-03-09T01:56:14.741Z,90.62
2019-03-09T01:57:14.914Z,91.24
2019-03-09T01:58:16.154Z,91.49
2019-03-09T01:59:15.344Z,90.87
2019-03-09T02:00:15.526Z,90.45
2019-03-09T02:01:15.710Z,90.87
2019-03-09T02:02:15.902Z,92.00
2019-03-09T02:03:16.090Z,91.59
2019-03-09T02:04:16.268Z,91.59
2019-03-09T02:05:16.428Z,91.07
2019-03-09T02:06:16.650Z,90.77
2019-03-09T02:07:16.844Z,90.14
2019-03-09T02:08:17.112Z,90.77
2019-03-09T02:09:17.211Z,90.77
2019-03-09T02:10:17.422Z,91.49
2019-03-09T02:11:17.648Z,91.90
2019-03-09T02:12:17.892Z,91.49
2019-03-09T02:13:17.949Z,91.53
2019-03-09T02:14:18.151Z,91.69
2019-03-09T02:15:18.334Z,91.49
2019-03-09T02:16:18.569Z,92.36
2019-03-09T02:17:18.661Z,91.84
2019-03-09T02:18:18.845Z,91.28
2019-03-09T02:19:19.025Z,91.49
2019-03-09T02:20:19.205Z,92.11
2019-03-09T02:21:19.419Z,92.15
2019-03-09T02:22:19.631Z,92.57
2019-03-09T02:23:19.822Z,92.77
2019-03-09T02:24:20.000Z,92.46
2019-03-09T02:25:20.190Z,93.66
2019-03-09T02:26:20.434Z,92.57
2019-03-09T02:27:20.511Z,92.67
2019-03-09T02:28:20.732Z,92.15
2019-03-09T02:29:20.948Z,91.80
2019-03-09T02:30:21.154Z,92.52
2019-03-09T02:31:21.402Z,93.39
2019-03-09T02:32:21.620Z,92.11
2019-03-09T02:33:21.810Z,92.83
2019-03-09T02:34:22.009Z,93.60
2019-03-09T02:35:23.251Z,93.35
2019-03-09T02:36:22.473Z,94.01
2019-03-09T02:37:22.856Z,93.45
2019-03-09T02:38:22.804Z,94.07
2019-03-09T02:39:22.978Z,94.69
2019-03-09T02:40:23.409Z,93.70
2019-03-09T02:41:24.375Z,94.18
2019-03-09T02:42:23.534Z,94.53
2019-03-09T02:43:23.716Z,94.53
2019-03-09T02:44:23.956Z,94.43
2019-03-09T02:45:24.193Z,93.76
2019-03-09T02:46:24.302Z,94.18
2019-03-09T02:47:24.487Z,94.79
2019-03-09T02:48:24.647Z,94.90
2019-03-09T02:49:24.834Z,94.63
2019-03-09T02:50:25.044Z,93.76
2019-03-09T02:51:25.230Z,94.07
2019-03-09T02:52:25.515Z,94.28
2019-03-09T02:53:25.649Z,94.59
2019-03-09T02:54:25.744Z,95.42
2019-03-09T02:55:25.945Z,94.28
2019-03-09T02:56:26.168Z,94.79
2019-03-09T02:57:26.388Z,95.31
2019-03-09T02:58:26.763Z,94.18
2019-03-09T02:59:26.981Z,94.48
2019-03-09T03:00:27.006Z,93.20
2019-03-09T03:01:27.048Z,93.51
2019-03-09T03:02:27.227Z,94.38
2019-03-09T03:03:27.431Z,94.54
2019-03-09T03:04:27.647Z,95.31
2019-03-09T03:05:27.895Z,95.83
2019-03-09T03:06:28.096Z,95.52
2019-03-09T03:07:28.346Z,94.90
2019-03-09T03:08:28.567Z,96.45
2019-03-09T03:09:28.847Z,96.86
2019-03-09T03:10:28.993Z,97.28
2019-03-09T03:11:29.087Z,96.97
2019-03-09T03:12:29.293Z,96.55
2019-03-09T03:13:29.516Z,96.14
2019-03-09T03:14:29.755Z,96.55
2019-03-09T03:15:30.020Z,96.55
2019-03-09T03:16:30.110Z,96.24
2019-03-09T03:17:30.310Z,96.86
2019-03-09T03:18:30.553Z,96.03
2019-03-09T03:19:30.791Z,96.03
2019-03-09T03:20:31.084Z,96.30
2019-03-09T03:21:31.182Z,97.28
2019-03-09T03:22:31.250Z,96.45
2019-03-09T03:23:31.528Z,96.55
2019-03-09T03:24:31.695Z,96.97
2019-03-09T03:25:32.022Z,97.07
2019-03-09T03:26:32.069Z,96.45
2019-03-09T03:27:32.341Z,96.30
2019-03-09T03:28:32.430Z,96.30
2019-03-09T03:29:32.657Z,96.51
2019-03-09T03:30:32.870Z,95.48
2019-03-09T03:31:33.100Z,95.37
2019-03-09T03:32:33.234Z,95.99
2019-03-09T03:33:33.561Z,95.12
2019-03-09T03:34:33.636Z,95.53
2019-03-09T03:35:33.905Z,96.30
2019-03-09T03:36:34.003Z,95.32
2019-03-09T03:37:34.213Z,96.09
2019-03-09T03:38:34.586Z,97.13
2019-03-09T03:39:34.667Z,96.72
2019-03-09T03:40:34.962Z,96.88
2019-03-09T03:41:35.077Z,96.92
2019-03-09T03:42:35.293Z,96.92
2019-03-09T03:43:35.505Z,97.13
2019-03-09T03:44:35.767Z,96.67
2019-03-09T03:45:35.815Z,96.77
2019-03-09T03:46:36.026Z,96.98
2019-03-09T03:47:36.244Z,96.98
2019-03-09T03:48:36.507Z,96.88
2019-03-09T03:49:36.638Z,96.36
2019-03-09T03:50:36.809Z,96.98
2019-03-09T03:51:37.024Z,97.39
2019-03-09T03:52:37.201Z,97.29
2019-03-09T03:53:37.408Z,97.50
2019-03-09T03:54:37.563Z,96.98
2019-03-09T03:55:37.746Z,97.19
2019-03-09T03:56:37.965Z,96.88
2019-03-09T03:57:38.126Z,96.98
2019-03-09T03:58:38.350Z,97.19
2019-03-09T03:59:38.557Z,97.25
2019-03-09T04:00:38.668Z,97.08
2019-03-09T04:01:38.909Z,97.29
2019-03-09T04:02:39.131Z,96.62
2019-03-09T04:03:39.332Z,97.19
2019-03-09T04:04:39.510Z,97.81
2019-03-09T04:05:39.765Z,97.08
2019-03-09T04:06:39.838Z,97.39
2019-03-09T04:07:40.032Z,97.14
2019-03-09T04:08:40.319Z,96.94
2019-03-09T04:09:40.410Z,97.08
2019-03-09T04:10:40.672Z,97.76
2019-03-09T04:11:40.847Z,97.55
2019-03-09T04:12:41.031Z,97.55
2019-03-09T04:13:41.342Z,98.32
2019-03-09T04:14:41.515Z,97.97
2019-03-09T04:15:42.682Z,97.34
2019-03-09T04:16:41.751Z,97.76
2019-03-09T04:17:41.964Z,97.76
2019-03-09T04:18:42.230Z,97.14
2019-03-09T04:19:42.341Z,96.94
2019-03-09T04:20:42.690Z,96.94
2019-03-09T04:21:42.741Z,97.14
2019-03-09T04:22:42.898Z,96.79
2019-03-09T04:23:43.154Z,96.99
2019-03-09T04:24:43.251Z,96.79
2019-03-09T04:25:43.453Z,97.20
2019-03-09T04:26:43.715Z,96.69
2019-03-09T04:27:43.777Z,96.58
2019-03-09T04:28:43.966Z,96.89
2019-03-09T04:29:44.186Z,97.41
2019-03-09T04:30:44.664Z,97.72
2019-03-09T04:31:44.637Z,96.89
2019-03-09T04:32:44.844Z,97.30
2019-03-09T04:33:45.044Z,97.41
2019-03-09T04:34:45.234Z,97.51
2019-03-09T04:35:45.621Z,98.13
2019-03-09T04:36:45.681Z,97.92
2019-03-09T04:37:45.880Z,97.51
2019-03-09T04:38:46.096Z,97.92
2019-03-09T04:39:46.290Z,97.51
2019-03-09T04:40:46.507Z,97.41
2019-03-09T04:41:46.675Z,97.51
2019-03-09T04:42:46.822Z,98.02
2019-03-09T04:43:46.996Z,98.02
2019-03-09T04:44:47.200Z,98.08
2019-03-09T04:45:47.434Z,97.92
2019-03-09T04:46:47.598Z,98.65
2019-03-09T04:47:47.758Z,98.33
2019-03-09T04:48:48.142Z,98.60
2019-03-09T04:49:48.093Z,98.44
2019-03-09T04:50:48.409Z,98.19
2019-03-09T04:51:48.424Z,97.98
2019-03-09T04:52:48.594Z,98.19
2019-03-09T04:53:48.753Z,97.67
2019-03-09T04:54:48.929Z,98.19
2019-03-09T04:55:49.104Z,98.80
2019-03-09T04:56:49.339Z,98.44
2019-03-09T04:57:49.506Z,98.60
2019-03-09T04:58:49.675Z,98.33
2019-03-09T04:59:49.898Z,98.50
2019-03-09T05:00:50.051Z,98.70
2019-03-09T05:01:50.188Z,98.29
2019-03-09T05:02:50.309Z,98.70
2019-03-09T05:03:50.486Z,99.01
2019-03-09T05:04:50.648Z,98.19
2019-03-09T05:05:50.788Z,98.39
2019-03-09T05:06:50.944Z,98.29
2019-03-09T05:07:51.179Z,98.39
2019-03-09T05:08:51.362Z,97.88
2019-03-09T05:09:51.530Z,97.98
2019-03-09T05:10:51.684Z,98.19
2019-03-09T05:11:51.835Z,97.88
2019-03-09T05:12:52.019Z,98.76
2019-03-09T05:13:52.208Z,98.80
2019-03-09T05:14:52.361Z,98.50
2019-03-09T05:15:52.480Z,98.91
2019-03-09T05:16:52.626Z,98.60
2019-03-09T05:17:52.791Z,98.29
2019-03-09T05:18:53.017Z,98.29
2019-03-09T05:19:53.182Z,98.39
2019-03-09T05:20:53.391Z,98.80
2019-03-09T05:21:53.562Z,98.86
2019-03-09T05:22:53.782Z,98.14
2019-03-09T05:23:53.948Z,98.45
2019-03-09T05:24:54.182Z,98.60
2019-03-09T05:25:54.368Z,97.83
2019-03-09T05:26:54.567Z,97.31
2019-03-09T05:27:54.742Z,97.63
2019-03-09T05:28:54.926Z,97.63
2019-03-09T05:29:55.130Z,98.14
2019-03-09T05:30:55.284Z,97.31
2019-03-09T05:31:55.497Z,97.63
2019-03-09T05:32:55.662Z,96.91
2019-03-09T05:33:55.835Z,96.80
2019-03-09T05:34:56.005Z,97.52
2019-03-09T05:35:56.200Z,96.80
2019-03-09T05:36:56.391Z,96.91
2019-03-09T05:37:56.578Z,96.91
2019-03-09T05:38:56.737Z,97.11
2019-03-09T05:39:56.890Z,97.01
2019-03-09T05:40:57.106Z,96.80
2019-03-09T05:41:57.298Z,96.80
2019-03-09T05:42:57.476Z,95.77
2019-03-09T05:43:57.666Z,96.49
2019-03-09T05:44:57.823Z,96.59
2019-03-09T05:45:57.989Z,97.01
2019-03-09T05:46:58.195Z,96.70
2019-03-09T05:47:58.374Z,96.49
2019-03-09T05:48:58.581Z,96.80
2019-03-09T05:49:58.805Z,97.01
2019-03-09T05:50:58.966Z,96.80
2019-03-09T05:51:59.162Z,96.59
2019-03-09T05:52:59.350Z,96.80
2019-03-09T05:53:59.506Z,95.87
2019-03-09T05:54:59.709Z,95.46
2019-03-09T05:55:59.865Z,95.21
2019-03-09T05:57:00.011Z,94.84
2019-03-09T05:58:00.162Z,95.36
2019-03-09T05:59:00.327Z,94.12
2019-03-09T06:00:00.472Z,94.43
2019-03-09T06:01:00.646Z,93.91
2019-03-09T06:02:00.840Z,92.47
2019-03-09T06:03:01.014Z,91.50
2019-03-09T06:04:01.158Z,92.27
2019-03-09T06:05:01.395Z,91.89
2019-03-09T06:06:01.539Z,91.75
2019-03-09T06:07:01.691Z,92.06
2019-03-09T06:08:01.866Z,92.00
2019-03-09T06:09:02.072Z,92.00
2019-03-09T06:10:02.233Z,92.31
2019-03-09T06:11:02.422Z,92.41
2019-03-09T06:12:02.596Z,92.51
2019-03-09T06:13:02.837Z,93.44
2019-03-09T06:14:02.884Z,93.65
2019-03-09T06:15:03.057Z,94.06
2019-03-09T06:16:03.192Z,94.21
2019-03-09T06:17:03.396Z,94.47
2019-03-09T06:18:03.584Z,94.52
2019-03-09T06:19:03.792Z,94.17
2019-03-09T06:20:03.959Z,94.21
2019-03-09T06:21:04.117Z,94.42
2019-03-09T06:22:04.283Z,93.85
2019-03-09T06:23:04.481Z,93.75
2019-03-09T06:24:04.644Z,94.10
2019-03-09T06:25:04.825Z,94.42
2019-03-09T06:26:05.053Z,94.00
2019-03-09T06:27:05.231Z,93.96
2019-03-09T06:28:05.461Z,94.27
2019-03-09T06:29:05.653Z,93.75
2019-03-09T06:30:05.829Z,93.34
2019-03-09T06:31:06.000Z,93.44
2019-03-09T06:32:06.173Z,93.65
2019-03-09T06:33:06.375Z,93.34
2019-03-09T06:34:06.556Z,92.61
2019-03-09T06:35:06.869Z,92.06
2019-03-09T06:36:06.905Z,91.75
2019-03-09T06:37:07.121Z,91.85
2019-03-09T06:38:07.296Z,92.06
2019-03-09T06:39:07.472Z,92.16
2019-03-09T06:40:07.653Z,92.10
2019-03-09T06:41:07.835Z,92.51
2019-03-09T06:42:08.002Z,91.96
2019-03-09T06:43:08.206Z,92.16
2019-03-09T06:44:08.356Z,91.96
2019-03-09T06:45:08.573Z,91.81
2019-03-09T06:46:08.761Z,90.99
2019-03-09T06:47:08.909Z,91.50
2019-03-09T06:48:09.117Z,91.09
2019-03-09T06:49:09.279Z,90.88
2019-03-09T06:50:09.450Z,91.36
2019-03-09T06:51:09.596Z,91.36
2019-03-09T06:52:09.736Z,91.09
2019-03-09T06:53:09.945Z,90.84
2019-03-09T06:54:10.130Z,90.22
2019-03-09T06:55:10.283Z,89.77
2019-03-09T06:56:10.438Z,89.01
2019-03-09T06:57:13.979Z,88.49
2019-03-09T06:58:13.508Z,87.46
2019-03-09T06:59:10.949Z,88.59
2019-03-09T07:00:11.126Z,87.87
2019-03-09T07:01:11.246Z,87.46
2019-03-09T07:02:11.407Z,87.77
2019-03-09T07:03:11.578Z,87.57
2019-03-09T07:04:11.706Z,87.57
2019-03-09T07:05:11.877Z,88.64
2019-03-09T07:06:12.024Z,88.43
2019-03-09T07:07:12.164Z,88.64
2019-03-09T07:08:12.358Z,88.84
2019-03-09T07:09:12.513Z,88.84
2019-03-09T07:10:12.664Z,88.33
2019-03-09T07:11:12.825Z,88.43
2019-03-09T07:12:12.991Z,88.64
2019-03-09T07:13:13.212Z,87.92
2019-03-09T07:14:13.399Z,87.71
2019-03-09T07:15:13.551Z,88.53
2019-03-09T07:16:13.777Z,87.05
2019-03-09T07:17:13.978Z,87.46
2019-03-09T07:18:14.221Z,87.15
2019-03-09T07:19:14.402Z,86.54
2019-03-09T07:20:14.596Z,87.77
2019-03-09T07:21:14.768Z,87.67
2019-03-09T07:22:14.928Z,86.74
2019-03-09T07:23:15.122Z,87.32
2019-03-09T07:24:15.286Z,86.33
2019-03-09T07:25:15.443Z,87.46
2019-03-09T07:26:15.589Z,88.29
2019-03-09T07:27:15.734Z,88.59
2019-03-09T07:28:15.931Z,87.05
2019-03-09T07:29:16.115Z,87.01
2019-03-09T07:30:16.319Z,87.46
2019-03-09T07:31:16.566Z,86.64
2019-03-09T07:32:16.604Z,87.15
2019-03-09T07:33:16.788Z,86.23
2019-03-09T07:34:16.936Z,87.05
2019-03-09T07:35:17.153Z,85.98
2019-03-09T07:36:17.313Z,86.91
2019-03-09T07:37:17.547Z,86.23
2019-03-09T07:38:17.730Z,86.60
2019-03-09T07:39:17.933Z,86.29
2019-03-09T07:40:18.157Z,87.26
2019-03-09T07:41:18.370Z,86.40
2019-03-09T07:42:18.563Z,84.95
2019-03-09T07:43:18.773Z,84.95
2019-03-09T07:44:18.998Z,84.85
2019-03-09T07:45:19.110Z,84.44
2019-03-09T07:46:19.288Z,85.16
2019-03-09T07:47:19.491Z,85.63
2019-03-09T07:48:19.704Z,84.34
2019-03-09T07:49:19.891Z,84.54
2019-03-09T07:50:21.068Z,84.44
2019-03-09T07:51:20.199Z,84.91
2019-03-09T07:52:20.418Z,84.20
2019-03-09T07:53:20.630Z,84.20
2019-03-09T07:54:20.846Z,83.72
2019-03-09T07:55:21.054Z,84.09
2019-03-09T07:56:21.224Z,83.37
2019-03-09T07:57:21.425Z,83.17
2019-03-09T07:58:21.606Z,82.86
2019-03-09T07:59:21.778Z,82.34
2019-03-09T08:00:21.983Z,83.48
2019-03-09T08:01:23.954Z,83.68
2019-03-09T08:02:22.388Z,84.09
2019-03-09T08:03:22.547Z,84.09
2019-03-09T08:04:22.726Z,84.61
2019-03-09T08:05:22.914Z,82.65
2019-03-09T08:06:23.118Z,83.58
2019-03-09T08:07:23.261Z,83.37
2019-03-09T08:08:23.461Z,83.37
2019-03-09T08:09:24.643Z,83.58
2019-03-09T08:10:24.819Z,83.48
2019-03-09T08:11:24.061Z,82.45
2019-03-09T08:12:24.355Z,83.99
2019-03-09T08:13:24.447Z,83.68
2019-03-09T08:14:24.662Z,84.20
2019-03-09T08:15:24.863Z,83.58
2019-03-09T08:16:25.024Z,83.48
2019-03-09T08:17:25.239Z,82.62
2019-03-09T08:18:25.408Z,83.44
2019-03-09T08:19:25.617Z,82.00
2019-03-09T08:20:25.774Z,83.44
2019-03-09T08:21:26.020Z,83.54
2019-03-09T08:22:26.063Z,82.31
2019-03-09T08:23:26.252Z,83.29
2019-03-09T08:24:26.463Z,82.62
2019-03-09T08:25:26.646Z,83.44
2019-03-09T08:26:26.806Z,83.09
2019-03-09T08:27:27.004Z,82.62
2019-03-09T08:28:27.184Z,82.10
2019-03-09T08:29:27.402Z,83.54
2019-03-09T08:30:27.597Z,83.64
2019-03-09T08:31:27.771Z,83.44
2019-03-09T08:32:28.003Z,83.64
2019-03-09T08:33:28.061Z,83.64
2019-03-09T08:34:28.278Z,81.65
2019-03-09T08:35:28.560Z,82.99
2019-03-09T08:36:28.596Z,81.86
2019-03-09T08:37:28.765Z,81.86
2019-03-09T08:38:28.931Z,81.86
2019-03-09T08:39:30.323Z,80.87
2019-03-09T08:40:29.333Z,81.65
2019-03-09T08:41:29.463Z,82.47
2019-03-09T08:42:29.665Z,82.27
2019-03-09T08:43:29.835Z,82.17
2019-03-09T08:44:30.049Z,83.40
2019-03-09T08:45:30.322Z,82.37
2019-03-09T08:46:30.321Z,82.37
2019-03-09T08:47:30.490Z,82.06
2019-03-09T08:48:30.666Z,82.17
2019-03-09T08:49:30.809Z,82.17
2019-03-09T08:50:30.970Z,81.24
2019-03-09T08:51:31.119Z,81.90
2019-03-09T08:52:31.282Z,81.45
2019-03-09T08:53:31.517Z,80.46
2019-03-09T08:54:31.723Z,80.32
2019-03-09T08:55:31.884Z,81.04
2019-03-09T08:56:33.567Z,80.77
2019-03-09T08:57:33.219Z,80.73
2019-03-09T08:58:32.350Z,80.66
2019-03-09T08:59:32.494Z,80.52
2019-03-09T09:00:32.905Z,80.42
2019-03-09T09:01:33.000Z,80.42
2019-03-09T09:02:33.141Z,82.27
2019-03-09T09:03:33.300Z,80.21
2019-03-09T09:04:34.724Z,79.39
2019-03-09T09:05:34.614Z,79.56
2019-03-09T09:06:34.795Z,80.58
2019-03-09T09:07:33.915Z,80.11
2019-03-09T09:08:34.075Z,80.28
2019-03-09T09:09:34.365Z,80.79
2019-03-09T09:10:34.393Z,80.58
2019-03-09T09:11:34.585Z,81.92
2019-03-09T09:12:34.713Z,81.20
2019-03-09T09:13:34.860Z,79.97
2019-03-09T09:14:35.097Z,79.97
2019-03-09T09:15:35.289Z,80.14
2019-03-09T09:16:35.452Z,79.83
2019-03-09T09:17:35.615Z,80.35
2019-03-09T09:18:35.800Z,79.80
2019-03-09T09:19:35.981Z,81.02
2019-03-09T09:20:36.117Z,79.59
2019-03-09T09:21:36.314Z,78.83
2019-03-09T09:22:36.521Z,78.87
2019-03-09T09:23:36.667Z,79.08
2019-03-09T09:24:36.841Z,80.10
2019-03-09T09:25:37.019Z,79.38
2019-03-09T09:26:37.204Z,79.28
2019-03-09T09:27:37.412Z,80.72
2019-03-09T09:28:37.556Z,79.75
2019-03-09T09:29:37.708Z,79.55
2019-03-09T09:30:37.903Z,80.37
2019-03-09T09:31:38.055Z,79.66
2019-03-09T09:32:38.246Z,78.63
2019-03-09T09:33:38.406Z,79.45
2019-03-09T09:34:38.575Z,79.31
2019-03-09T09:35:38.756Z,78.90
2019-03-09T09:36:38.897Z,78.97
2019-03-09T09:37:39.131Z,78.39
2019-03-09T09:38:39.365Z,78.90
2019-03-09T09:39:39.526Z,77.57
2019-03-09T09:40:39.661Z,77.36
2019-03-09T09:41:39.903Z,78.59
2019-03-09T09:42:40.051Z,78.86
2019-03-09T09:43:40.201Z,78.15
2019-03-09T09:44:40.382Z,76.85
2019-03-09T09:45:40.522Z,77.43
2019-03-09T09:46:40.693Z,77.84
2019-03-09T09:47:42.528Z,76.51
2019-03-09T09:48:40.976Z,77.84
2019-03-09T09:49:41.237Z,76.92
2019-03-09T09:50:41.253Z,77.43
2019-03-09T09:51:41.390Z,76.40
2019-03-09T09:52:41.589Z,76.40
2019-03-09T09:53:41.748Z,77.67
2019-03-09T09:54:41.941Z,77.33
2019-03-09T09:55:42.085Z,77.33
2019-03-09T09:56:42.291Z,78.80
2019-03-09T09:57:42.458Z,77.26
2019-03-09T09:58:42.623Z,77.50
2019-03-09T09:59:42.853Z,77.06
2019-03-09T10:00:43.058Z,78.28
2019-03-09T10:01:43.216Z,77.77
2019-03-09T10:02:43.389Z,77.47
2019-03-09T10:03:43.567Z,77.06
2019-03-09T10:04:43.740Z,77.33
2019-03-09T10:05:43.942Z,77.02
2019-03-09T10:06:44.086Z,76.10
2019-03-09T10:07:44.303Z,75.79
2019-03-09T10:08:44.535Z,75.38
2019-03-09T10:09:44.593Z,75.31
2019-03-09T10:10:44.787Z,75.82
2019-03-09T10:11:44.989Z,77.43
2019-03-09T10:12:45.149Z,77.26
2019-03-09T10:13:45.320Z,76.40
2019-03-09T10:14:45.458Z,75.73
2019-03-09T10:15:45.623Z,77.06
2019-03-09T10:16:45.780Z,76.14
2019-03-09T10:17:45.947Z,77.47
2019-03-09T10:18:46.120Z,78.49
2019-03-09T10:19:46.277Z,77.26
2019-03-09T10:20:46.449Z,78.08
2019-03-09T10:21:46.607Z,77.98
2019-03-09T10:22:46.763Z,77.67
2019-03-09T10:23:46.940Z,77.47
2019-03-09T10:24:47.123Z,78.19
2019-03-09T10:25:47.293Z,77.47
2019-03-09T10:26:47.464Z,77.02
2019-03-09T10:27:47.633Z,76.24
2019-03-09T10:28:47.839Z,75.38
2019-03-09T10:29:48.026Z,75.89
2019-03-09T10:30:48.200Z,75.04
2019-03-09T10:31:48.372Z,74.84
2019-03-09T10:32:48.562Z,73.98
2019-03-09T10:33:48.764Z,73.36
2019-03-09T10:34:48.916Z,73.74
2019-03-09T10:35:49.068Z,72.65
2019-03-09T10:36:49.223Z,72.45
2019-03-09T10:37:49.402Z,72.34
2019-03-09T10:38:49.624Z,72.75
2019-03-09T10:39:49.778Z,73.54
2019-03-09T10:40:50.962Z,72.99
2019-03-09T10:41:50.120Z,71.90
2019-03-09T10:42:50.272Z,73.16
2019-03-09T10:43:50.521Z,72.62
2019-03-09T10:44:50.560Z,71.80
2019-03-09T10:45:50.756Z,73.16
2019-03-09T10:46:51.039Z,73.03
2019-03-09T10:47:51.082Z,72.96
2019-03-09T10:48:51.234Z,73.27
2019-03-09T10:49:51.392Z,72.86
2019-03-09T10:50:51.569Z,73.10
2019-03-09T10:51:51.769Z,72.65
2019-03-09T10:52:51.934Z,73.10
2019-03-09T10:53:52.104Z,72.89
2019-03-09T10:54:52.240Z,73.61
2019-03-09T10:55:52.398Z,72.99
2019-03-09T10:56:52.616Z,72.78
2019-03-09T10:57:52.782Z,73.50
2019-03-09T10:58:52.983Z,74.73
2019-03-09T10:59:53.133Z,73.30
2019-03-09T11:00:53.283Z,73.23
2019-03-09T11:01:53.435Z,73.44
2019-03-09T11:02:53.595Z,72.41
2019-03-09T11:03:53.764Z,72.82
2019-03-09T11:04:53.956Z,74.84
2019-03-09T11:05:54.150Z,73.03
2019-03-09T11:06:54.331Z,73.23
2019-03-09T11:07:55.505Z,72.92
2019-03-09T11:08:54.646Z,72.61
2019-03-09T11:09:54.833Z,72.89
2019-03-09T11:10:55.032Z,73.71
2019-03-09T11:11:55.233Z,72.58
2019-03-09T11:12:55.384Z,72.89
2019-03-09T11:13:55.563Z,72.11
2019-03-09T11:14:55.741Z,71.86
2019-03-09T11:15:55.908Z,72.28
2019-03-09T11:16:56.102Z,71.66
2019-03-09T11:17:56.318Z,72.69
2019-03-09T11:18:56.494Z,71.45
2019-03-09T11:19:56.676Z,71.66
2019-03-09T11:20:56.828Z,73.30
2019-03-09T11:21:56.998Z,71.86
2019-03-09T11:22:57.188Z,71.56
2019-03-09T11:23:57.394Z,71.56
2019-03-09T11:25:03.381Z,71.53
2019-03-09T11:25:59.702Z,71.36
2019-03-09T11:26:57.928Z,71.32
2019-03-09T11:27:58.105Z,71.42
2019-03-09T11:28:58.311Z,72.04
2019-03-09T11:29:58.491Z,70.29
2019-03-09T11:30:58.682Z,71.19
2019-03-09T11:31:58.900Z,70.40
2019-03-09T11:32:59.091Z,70.16
2019-03-09T11:33:59.253Z,69.75
2019-03-09T11:34:59.398Z,70.26
2019-03-09T11:35:59.606Z,69.42
2019-03-09T11:36:59.788Z,69.24
2019-03-09T11:37:59.980Z,69.72
2019-03-09T11:39:00.138Z,68.19
2019-03-09T11:40:00.416Z,68.57
2019-03-09T11:41:00.947Z,68.26
2019-03-09T11:42:01.676Z,69.59
2019-03-09T11:43:00.804Z,68.53
2019-03-09T11:44:00.975Z,67.10
2019-03-09T11:45:01.135Z,67.61
2019-03-09T11:46:01.324Z,68.77
2019-03-09T11:47:01.508Z,67.65
2019-03-09T11:48:01.693Z,68.26
2019-03-09T11:49:02.006Z,68.53
2019-03-09T11:50:02.067Z,68.87
2019-03-09T11:51:02.254Z,68.63
2019-03-09T11:52:02.444Z,68.36
2019-03-09T11:53:02.624Z,68.33
2019-03-09T11:54:02.820Z,68.74
2019-03-09T11:55:02.989Z,68.77
2019-03-09T11:56:03.199Z,69.59
2019-03-09T11:57:03.373Z,69.04
2019-03-09T11:58:03.582Z,67.61
2019-03-09T11:59:03.897Z,67.65
2019-03-09T12:00:03.927Z,67.65
2019-03-09T12:01:04.086Z,68.02
2019-03-09T12:02:04.258Z,67.51
2019-03-09T12:03:04.451Z,68.30
2019-03-09T12:04:04.592Z,68.19
2019-03-09T12:05:04.763Z,65.92
2019-03-09T12:06:04.991Z,64.76
2019-03-09T12:07:05.215Z,65.68
2019-03-09T12:08:05.383Z,64.90
2019-03-09T12:09:05.579Z,64.90
2019-03-09T12:10:05.753Z,64.46
2019-03-09T12:11:05.932Z,64.69
2019-03-09T12:12:06.095Z,65.13
2019-03-09T12:13:06.275Z,65.47
2019-03-09T12:14:06.494Z,66.42
2019-03-09T12:15:07.637Z,63.87
2019-03-09T12:16:06.779Z,65.45
2019-03-09T12:17:12.499Z,62.80
2019-03-09T12:18:09.108Z,61.29
2019-03-09T12:19:07.269Z,60.60
2019-03-09T12:20:07.467Z,61.61
2019-03-09T12:21:07.650Z,61.88
2019-03-09T12:22:07.861Z,61.24
2019-03-09T12:23:08.014Z,62.16
2019-03-09T12:24:16.024Z,61.88
2019-03-09T12:25:10.314Z,63.23
2019-03-09T12:26:08.470Z,63.44
2019-03-09T12:27:08.609Z,61.82
2019-03-09T12:28:08.758Z,60.52
2019-03-09T12:29:08.934Z,59.70
2019-03-09T12:30:09.101Z,58.86
2019-03-09T12:31:09.298Z,60.77
2019-03-09T12:32:09.554Z,59.53
2019-03-09T12:33:09.587Z,59.91
2019-03-09T12:34:09.777Z,59.84
2019-03-09T12:35:09.947Z,59.01
2019-03-09T12:36:10.216Z,58.40
2019-03-09T12:37:10.250Z,58.30
2019-03-09T12:38:10.430Z,59.63
2019-03-09T12:39:10.607Z,57.81
2019-03-09T12:40:10.794Z,58.20
2019-03-09T12:41:10.996Z,57.20
2019-03-09T12:42:11.184Z,56.62
2019-03-09T12:43:11.377Z,57.84
2019-03-09T12:44:11.542Z,57.90
2019-03-09T12:45:11.743Z,55.81
2019-03-09T12:46:11.911Z,58.71
2019-03-09T12:47:12.130Z,59.63
2019-03-09T12:48:12.352Z,58.18
2019-03-09T12:49:12.539Z,60.28
2019-03-09T12:50:12.714Z,59.89
2019-03-09T12:51:12.866Z,61.94
2019-03-09T12:52:13.080Z,62.35
2019-03-09T12:53:14.236Z,63.06
2019-03-09T12:54:14.561Z,62.14
2019-03-09T12:55:14.713Z,63.34